Friday, October 20, 2017, 9:27 PM EDT
Back to Local

KHFD, Hartford-brainard Airport

Location: Hartford, CT, United States Lat: 41.733
Local Time: 9:27 PM EDT ( 1:27 GMT) Lon: -72.65
Time Zone: US/Eastern Elev: 19 ft

Show me the last for .
Show Coded

Time T Td Feel RH Dir Speed Gust Alt SLP Vis Weather Sky Remarks
2017-10-20 20:53 58 41 - 53 - Calm - 30.13 30.13 10 CLR None
2017-10-20 19:53 57 44 - 61 190° 3 - 30.12 30.12 10 CLR 6-hr Min Temp (8pm): 57.0°F
6-hr Max Temp (8pm): 72.0°F
2017-10-20 18:53 66 40 - 38 290° 6 - 30.10 30.10 10 CLR None
2017-10-20 17:53 68 39 - 34 310° 8 - 30.08 30.08 10 CLR None
2017-10-20 16:53 70 38 - 30 300° 10 - 30.07 30.07 10 CLR None
2017-10-20 15:53 71 37 - 28 320° 14 22 30.06 30.06 10 CLR None
2017-10-20 14:53 72 37 - 27 290° 10 - 30.05 30.05 10 CLR None
2017-10-20 13:53 71 38 - 29 310° 14 22 30.05 30.05 10 CLR 6-hr Min Temp (2pm): 57.0°F
6-hr Max Temp (2pm): 71.1°F
2017-10-20 12:53 70 38 - 30 330° 14 17 30.08 30.08 10 CLR None
2017-10-20 11:53 67 37 - 33 290° 12 - 30.10 30.09 10 CLR None
2017-10-20 10:53 65 38 - 36 290° 8 18 30.11 30.11 10 CLR None
2017-10-20 09:53 63 38 - 39 280° 14 21 30.12 30.12 10 CLR None
2017-10-20 08:53 60 42 - 51 300° 6 - 30.11 30.11 10 CLR None
2017-10-20 07:53 57 44 - 61 290° 9 - 30.10 30.10 10 CLR 6-hr Min Temp (8am): 46.9°F
6-hr Max Temp (8am): 57.0°F
2017-10-20 06:53 48 46 47 92 Variable 3 - 30.07 30.07 10 CLR None
2017-10-20 05:53 48 46 - 92 - Calm - 30.07 30.07 10 CLR None
2017-10-20 04:53 49 48 - 96 - Calm - 30.05 30.05 10 CLR None
2017-10-20 03:53 53 49 - 85 - Calm - 30.04 30.03 10 CLR None
2017-10-20 02:53 55 50 - 83 160° 3 - 30.03 30.03 10 CLR None
2017-10-20 01:53 54 51 - 89 180° 5 - 30.04 30.03 10 CLR 6-hr Min Temp (2am): 54.0°F
6-hr Max Temp (2am): 61.0°F
2017-10-20 00:53 58 50 - 74 200° 6 - 30.03 30.03 10 CLR 24-hr Min Temp (1am): 44.1°F
24-hr Max Temp (1am): 73.0°F
2017-10-19 23:53 57 52 - 83 170° 7 - 30.03 30.03 10 CLR None
2017-10-19 22:53 59 53 - 80 180° 9 - 30.03 30.03 10 CLR None
2017-10-19 21:53 59 53 - 80 180° 10 - 30.04 30.04 10 CLR None

Support USWX by starting your Amazon purchase here.